sensor_id;sensor_type;location;lat;lon;timestamp;pressure;altitude;pressure_sealevel;temperature;humidity
37291;BME280;23175;-33.706;151.094;2023-02-28T00:02:01;99564.05;;;20.09;55.36
37291;BME280;23175;-33.706;151.094;2023-02-28T00:04:31;99560.20;;;20.16;53.54
37291;BME280;23175;-33.706;151.094;2023-02-28T00:07:01;99557.15;;;20.61;51.86
37291;BME280;23175;-33.706;151.094;2023-02-28T00:09:32;99551.51;;;22.53;49.54
37291;BME280;23175;-33.706;151.094;2023-02-28T00:12:01;99544.96;;;18.32;56.52
37291;BME280;23175;-33.706;151.094;2023-02-28T00:14:32;99544.58;;;20.83;51.41
37291;BME280;23175;-33.706;151.094;2023-02-28T00:17:02;99537.50;;;18.70;53.86
37291;BME280;23175;-33.706;151.094;2023-02-28T00:19:32;99535.59;;;17.28;58.24
37291;BME280;23175;-33.706;151.094;2023-02-28T00:22:02;99529.52;;;19.73;55.22
37291;BME280;23175;-33.706;151.094;2023-02-28T00:24:32;99525.67;;;16.96;59.90
37291;BME280;23175;-33.706;151.094;2023-02-28T00:27:03;99523.23;;;21.00;52.23
37291;BME280;23175;-33.706;151.094;2023-02-28T00:29:33;99518.34;;;19.03;56.45
37291;BME280;23175;-33.706;151.094;2023-02-28T00:32:04;99515.40;;;20.31;52.30
37291;BME280;23175;-33.706;151.094;2023-02-28T00:34:34;99509.34;;;20.21;53.30
37291;BME280;23175;-33.706;151.094;2023-02-28T00:37:07;99498.55;;;20.11;53.52
37291;BME280;23175;-33.706;151.094;2023-02-28T00:39:39;99496.61;;;22.07;53.19
37291;BME280;23175;-33.706;151.094;2023-02-28T00:42:10;99491.65;;;20.93;51.84
37291;BME280;23175;-33.706;151.094;2023-02-28T00:44:40;99484.41;;;20.74;52.53
37291;BME280;23175;-33.706;151.094;2023-02-28T00:47:10;99479.22;;;21.97;49.97
37291;BME280;23175;-33.706;151.094;2023-02-28T00:49:41;99475.20;;;20.07;53.47
37291;BME280;23175;-33.706;151.094;2023-02-28T00:52:11;99473.52;;;20.03;51.76
37291;BME280;23175;-33.706;151.094;2023-02-28T00:54:41;99469.22;;;19.87;52.24
37291;BME280;23175;-33.706;151.094;2023-02-28T00:57:11;99460.34;;;21.62;50.66
37291;BME280;23175;-33.706;151.094;2023-02-28T00:59:42;99458.97;;;20.99;50.15
37291;BME280;23175;-33.706;151.094;2023-02-28T01:02:12;99455.79;;;22.22;48.37
37291;BME280;23175;-33.706;151.094;2023-02-28T01:04:42;99456.93;;;17.92;55.60
37291;BME280;23175;-33.706;151.094;2023-02-28T01:07:12;99451.00;;;20.89;49.29
37291;BME280;23175;-33.706;151.094;2023-02-28T01:09:42;99444.44;;;21.31;49.49
37291;BME280;23175;-33.706;151.094;2023-02-28T01:12:12;99449.31;;;20.80;51.33
37291;BME280;23175;-33.706;151.094;2023-02-28T01:14:43;99440.94;;;22.68;47.44
37291;BME280;23175;-33.706;151.094;2023-02-28T01:17:13;99435.27;;;21.91;48.83
37291;BME280;23175;-33.706;151.094;2023-02-28T01:19:43;99436.63;;;20.17;54.19
37291;BME280;23175;-33.706;151.094;2023-02-28T01:22:13;99427.96;;;22.38;50.22
37291;BME280;23175;-33.706;151.094;2023-02-28T01:24:43;99421.81;;;20.10;52.27
37291;BME280;23175;-33.706;151.094;2023-02-28T01:27:14;99422.27;;;18.97;54.45
37291;BME280;23175;-33.706;151.094;2023-02-28T01:29:44;99413.24;;;20.62;49.48
37291;BME280;23175;-33.706;151.094;2023-02-28T01:32:14;99413.82;;;18.94;54.02
37291;BME280;23175;-33.706;151.094;2023-02-28T01:34:45;99404.86;;;21.05;49.91
37291;BME280;23175;-33.706;151.094;2023-02-28T01:37:15;99399.28;;;21.34;48.49
37291;BME280;23175;-33.706;151.094;2023-02-28T01:39:45;99403.02;;;19.79;51.21
37291;BME280;23175;-33.706;151.094;2023-02-28T01:42:15;99394.04;;;19.60;51.07
37291;BME280;23175;-33.706;151.094;2023-02-28T01:45:06;99389.44;;;20.26;50.62
37291;BME280;23175;-33.706;151.094;2023-02-28T01:47:39;99389.13;;;21.49;48.31
37291;BME280;23175;-33.706;151.094;2023-02-28T01:50:15;99387.56;;;20.22;51.25
37291;BME280;23175;-33.706;151.094;2023-02-28T01:52:48;99385.80;;;22.47;46.90
37291;BME280;23175;-33.706;151.094;2023-02-28T01:55:20;99390.17;;;20.55;50.01
37291;BME280;23175;-33.706;151.094;2023-02-28T01:57:53;99384.65;;;21.74;50.17
37291;BME280;23175;-33.706;151.094;2023-02-28T02:00:26;99379.90;;;21.88;48.39
37291;BME280;23175;-33.706;151.094;2023-02-28T02:02:59;99374.44;;;22.76;46.72
37291;BME280;23175;-33.706;151.094;2023-02-28T02:05:31;99376.64;;;18.78;53.39
37291;BME280;23175;-33.706;151.094;2023-02-28T02:08:04;99370.74;;;22.47;48.29
37291;BME280;23175;-33.706;151.094;2023-02-28T02:10:39;99365.65;;;21.51;49.89
37291;BME280;23175;-33.706;151.094;2023-02-28T02:13:31;99363.96;;;22.16;48.85
37291;BME280;23175;-33.706;151.094;2023-02-28T02:16:13;99361.22;;;20.52;50.02
37291;BME280;23175;-33.706;151.094;2023-02-28T02:18:51;99354.42;;;19.60;53.09
37291;BME280;23175;-33.706;151.094;2023-02-28T02:21:56;99347.26;;;21.26;48.90
37291;BME280;23175;-33.706;151.094;2023-02-28T02:25:41;99352.40;;;20.25;50.96
37291;BME280;23175;-33.706;151.094;2023-02-28T02:29:35;99344.30;;;22.08;47.32
37291;BME280;23175;-33.706;151.094;2023-02-28T02:33:25;99336.39;;;22.27;47.43
37291;BME280;23175;-33.706;151.094;2023-02-28T02:36:02;99332.89;;;23.01;45.05
37291;BME280;23175;-33.706;151.094;2023-02-28T02:38:41;99327.33;;;21.56;47.24
37291;BME280;23175;-33.706;151.094;2023-02-28T02:41:17;99325.37;;;19.41;50.59
37291;BME280;23175;-33.706;151.094;2023-02-28T02:43:52;99319.48;;;22.24;47.00
37291;BME280;23175;-33.706;151.094;2023-02-28T02:46:31;99317.59;;;19.82;51.28
37291;BME280;23175;-33.706;151.094;2023-02-28T02:49:06;99310.74;;;21.36;48.27
37291;BME280;23175;-33.706;151.094;2023-02-28T02:51:39;99305.75;;;20.89;49.37
37291;BME280;23175;-33.706;151.094;2023-02-28T02:54:15;99304.54;;;18.96;54.13
37291;BME280;23175;-33.706;151.094;2023-02-28T02:56:50;99293.57;;;20.26;51.50
37291;BME280;23175;-33.706;151.094;2023-02-28T02:59:23;99289.15;;;20.68;49.33
37291;BME280;23175;-33.706;151.094;2023-02-28T03:01:56;99287.10;;;19.57;50.86
37291;BME280;23175;-33.706;151.094;2023-02-28T03:04:32;99285.28;;;23.14;47.31
37291;BME280;23175;-33.706;151.094;2023-02-28T03:07:03;99275.98;;;22.20;48.04
37291;BME280;23175;-33.706;151.094;2023-02-28T03:09:35;99272.98;;;20.98;48.20
37291;BME280;23175;-33.706;151.094;2023-02-28T03:12:10;99269.26;;;22.84;46.93
37291;BME280;23175;-33.706;151.094;2023-02-28T03:14:51;99255.30;;;21.94;47.76
37291;BME280;23175;-33.706;151.094;2023-02-28T03:17:33;99254.81;;;22.81;48.21
37291;BME280;23175;-33.706;151.094;2023-02-28T03:20:12;99248.63;;;20.90;49.51
37291;BME280;23175;-33.706;151.094;2023-02-28T03:22:54;99243.43;;;22.86;47.04
37291;BME280;23175;-33.706;151.094;2023-02-28T03:25:33;99244.35;;;19.73;51.66
37291;BME280;23175;-33.706;151.094;2023-02-28T03:28:12;99243.22;;;18.87;53.16
37291;BME280;23175;-33.706;151.094;2023-02-28T03:30:49;99235.73;;;21.13;49.92
37291;BME280;23175;-33.706;151.094;2023-02-28T03:33:23;99237.96;;;17.75;57.14
37291;BME280;23175;-33.706;151.094;2023-02-28T03:35:57;99236.89;;;18.96;55.96
37291;BME280;23175;-33.706;151.094;2023-02-28T03:38:34;99233.77;;;19.05;56.19
37291;BME280;23175;-33.706;151.094;2023-02-28T03:41:10;99230.40;;;19.18;54.96
37291;BME280;23175;-33.706;151.094;2023-02-28T03:43:44;99227.27;;;18.52;56.38
37291;BME280;23175;-33.706;151.094;2023-02-28T03:46:21;99222.28;;;21.17;52.43
37291;BME280;23175;-33.706;151.094;2023-02-28T03:48:59;99213.40;;;19.98;54.36
37291;BME280;23175;-33.706;151.094;2023-02-28T03:51:33;99208.78;;;20.34;52.85
37291;BME280;23175;-33.706;151.094;2023-02-28T03:54:08;99204.36;;;19.88;54.35
37291;BME280;23175;-33.706;151.094;2023-02-28T03:56:43;99202.46;;;21.42;49.84
37291;BME280;23175;-33.706;151.094;2023-02-28T03:59:21;99202.34;;;20.12;51.08
37291;BME280;23175;-33.706;151.094;2023-02-28T04:01:53;99194.24;;;23.24;47.81
37291;BME280;23175;-33.706;151.094;2023-02-28T04:04:23;99184.73;;;21.04;50.58
37291;BME280;23175;-33.706;151.094;2023-02-28T04:07:00;99185.75;;;20.42;51.32
37291;BME280;23175;-33.706;151.094;2023-02-28T04:09:30;99182.42;;;20.83;50.17
37291;BME280;23175;-33.706;151.094;2023-02-28T04:12:01;99178.63;;;20.88;50.51
37291;BME280;23175;-33.706;151.094;2023-02-28T04:14:31;99163.98;;;21.38;48.70
37291;BME280;23175;-33.706;151.094;2023-02-28T04:17:01;99167.83;;;20.84;50.91
37291;BME280;23175;-33.706;151.094;2023-02-28T04:19:31;99160.91;;;21.57;48.69
37291;BME280;23175;-33.706;151.094;2023-02-28T04:22:01;99164.76;;;20.08;51.06
37291;BME280;23175;-33.706;151.094;2023-02-28T04:24:31;99163.57;;;20.69;50.46
37291;BME280;23175;-33.706;151.094;2023-02-28T04:27:02;99153.74;;;22.82;48.55
37291;BME280;23175;-33.706;151.094;2023-02-28T04:29:33;99156.07;;;22.69;47.51
37291;BME280;23175;-33.706;151.094;2023-02-28T04:32:03;99142.45;;;21.80;49.67
37291;BME280;23175;-33.706;151.094;2023-02-28T04:34:34;99136.83;;;20.72;49.39
37291;BME280;23175;-33.706;151.094;2023-02-28T04:37:06;99127.51;;;22.13;47.52
37291;BME280;23175;-33.706;151.094;2023-02-28T04:39:37;99126.57;;;20.93;51.23
37291;BME280;23175;-33.706;151.094;2023-02-28T04:42:09;99122.61;;;21.99;48.93
37291;BME280;23175;-33.706;151.094;2023-02-28T04:44:40;99120.89;;;21.09;50.92
37291;BME280;23175;-33.706;151.094;2023-02-28T04:47:10;99125.54;;;23.07;47.33
37291;BME280;23175;-33.706;151.094;2023-02-28T04:49:40;99128.78;;;21.71;49.42
37291;BME280;23175;-33.706;151.094;2023-02-28T04:52:10;99119.39;;;23.30;46.91
37291;BME280;23175;-33.706;151.094;2023-02-28T04:54:41;99118.65;;;21.80;49.48
37291;BME280;23175;-33.706;151.094;2023-02-28T04:57:11;99115.54;;;23.02;47.59
37291;BME280;23175;-33.706;151.094;2023-02-28T04:59:41;99102.16;;;21.76;49.49
37291;BME280;23175;-33.706;151.094;2023-02-28T05:02:12;99094.26;;;22.67;47.28
37291;BME280;23175;-33.706;151.094;2023-02-28T05:04:42;99090.96;;;21.91;49.05
37291;BME280;23175;-33.706;151.094;2023-02-28T05:07:12;99089.21;;;19.77;53.46
37291;BME280;23175;-33.706;151.094;2023-02-28T05:09:42;99094.65;;;20.33;53.49
37291;BME280;23175;-33.706;151.094;2023-02-28T05:12:12;99092.33;;;20.46;51.29
37291;BME280;23175;-33.706;151.094;2023-02-28T05:14:42;99092.08;;;21.03;52.47
37291;BME280;23175;-33.706;151.094;2023-02-28T05:17:12;99095.29;;;21.65;50.87
37291;BME280;23175;-33.706;151.094;2023-02-28T05:19:42;99097.78;;;21.15;51.34
37291;BME280;23175;-33.706;151.094;2023-02-28T05:22:16;99097.98;;;21.29;50.57
37291;BME280;23175;-33.706;151.094;2023-02-28T05:24:46;99086.75;;;20.91;52.45
37291;BME280;23175;-33.706;151.094;2023-02-28T05:27:20;99078.59;;;19.18;55.62
37291;BME280;23175;-33.706;151.094;2023-02-28T05:29:51;99068.01;;;19.77;54.84
37291;BME280;23175;-33.706;151.094;2023-02-28T05:32:21;99075.87;;;19.41;55.00
37291;BME280;23175;-33.706;151.094;2023-02-28T05:34:51;99068.24;;;22.26;50.55
37291;BME280;23175;-33.706;151.094;2023-02-28T05:37:22;99060.23;;;20.56;53.25
37291;BME280;23175;-33.706;151.094;2023-02-28T05:39:52;99056.28;;;20.65;52.35
37291;BME280;23175;-33.706;151.094;2023-02-28T05:42:23;99057.18;;;22.15;49.81
37291;BME280;23175;-33.706;151.094;2023-02-28T05:44:53;99054.31;;;22.00;49.95
37291;BME280;23175;-33.706;151.094;2023-02-28T05:47:23;99050.31;;;21.34;51.10
37291;BME280;23175;-33.706;151.094;2023-02-28T05:49:54;99052.34;;;20.31;53.73
37291;BME280;23175;-33.706;151.094;2023-02-28T05:52:25;99057.67;;;21.52;51.69
37291;BME280;23175;-33.706;151.094;2023-02-28T05:54:55;99049.08;;;20.10;54.24
37291;BME280;23175;-33.706;151.094;2023-02-28T05:57:25;99054.88;;;21.21;53.12
37291;BME280;23175;-33.706;151.094;2023-02-28T05:59:56;99047.42;;;21.84;51.50
37291;BME280;23175;-33.706;151.094;2023-02-28T06:02:27;99032.33;;;21.61;51.24
37291;BME280;23175;-33.706;151.094;2023-02-28T06:04:57;99030.98;;;19.30;55.72
37291;BME280;23175;-33.706;151.094;2023-02-28T06:07:28;99037.52;;;20.85;52.67
37291;BME280;23175;-33.706;151.094;2023-02-28T06:09:58;99040.32;;;20.48;54.94
37291;BME280;23175;-33.706;151.094;2023-02-28T06:12:28;99038.45;;;21.63;52.12
37291;BME280;23175;-33.706;151.094;2023-02-28T06:14:58;99036.86;;;21.03;52.47
37291;BME280;23175;-33.706;151.094;2023-02-28T06:17:28;99035.79;;;20.40;54.11
37291;BME280;23175;-33.706;151.094;2023-02-28T06:19:58;99038.33;;;21.48;52.57
37291;BME280;23175;-33.706;151.094;2023-02-28T06:22:29;99028.47;;;22.08;49.83
37291;BME280;23175;-33.706;151.094;2023-02-28T06:24:59;99028.84;;;20.25;54.31
37291;BME280;23175;-33.706;151.094;2023-02-28T06:27:29;99022.66;;;19.47;56.31
37291;BME280;23175;-33.706;151.094;2023-02-28T06:30:00;99029.70;;;21.52;52.27
37291;BME280;23175;-33.706;151.094;2023-02-28T06:32:30;99027.32;;;19.21;56.66
37291;BME280;23175;-33.706;151.094;2023-02-28T06:35:00;99030.51;;;19.38;56.59
37291;BME280;23175;-33.706;151.094;2023-02-28T06:37:31;99031.50;;;22.55;50.48
37291;BME280;23175;-33.706;151.094;2023-02-28T06:40:01;99024.25;;;21.15;53.18
37291;BME280;23175;-33.706;151.094;2023-02-28T06:42:32;99014.69;;;22.01;50.21
37291;BME280;23175;-33.706;151.094;2023-02-28T06:45:02;99012.80;;;20.57;53.18
37291;BME280;23175;-33.706;151.094;2023-02-28T06:47:33;99014.29;;;20.68;52.35
37291;BME280;23175;-33.706;151.094;2023-02-28T06:50:03;99014.10;;;20.58;52.73
37291;BME280;23175;-33.706;151.094;2023-02-28T06:52:34;99018.35;;;17.83;58.24
37291;BME280;23175;-33.706;151.094;2023-02-28T06:55:05;99017.99;;;20.59;54.41
37291;BME280;23175;-33.706;151.094;2023-02-28T06:57:37;99017.06;;;21.37;52.29
37291;BME280;23175;-33.706;151.094;2023-02-28T07:00:12;99010.22;;;19.64;55.30
37291;BME280;23175;-33.706;151.094;2023-02-28T07:02:42;99008.04;;;21.35;52.95
37291;BME280;23175;-33.706;151.094;2023-02-28T07:05:13;99012.22;;;19.64;55.64
37291;BME280;23175;-33.706;151.094;2023-02-28T07:07:43;99015.41;;;19.46;56.33
37291;BME280;23175;-33.706;151.094;2023-02-28T07:10:13;99008.88;;;20.77;54.10
37291;BME280;23175;-33.706;151.094;2023-02-28T07:12:44;99004.64;;;20.19;55.71
37291;BME280;23175;-33.706;151.094;2023-02-28T07:15:14;99015.90;;;21.21;53.69
37291;BME280;23175;-33.706;151.094;2023-02-28T07:17:44;99016.52;;;18.51;58.88
37291;BME280;23175;-33.706;151.094;2023-02-28T07:20:15;99020.95;;;19.76;57.72
37291;BME280;23175;-33.706;151.094;2023-02-28T07:22:45;99029.01;;;18.95;60.12
37291;BME280;23175;-33.706;151.094;2023-02-28T07:25:15;99028.40;;;18.66;60.23
37291;BME280;23175;-33.706;151.094;2023-02-28T07:27:45;99023.20;;;20.58;55.99
37291;BME280;23175;-33.706;151.094;2023-02-28T07:30:16;99024.85;;;21.96;52.55
37291;BME280;23175;-33.706;151.094;2023-02-28T07:32:46;99028.40;;;19.30;56.34
37291;BME280;23175;-33.706;151.094;2023-02-28T07:35:16;99026.93;;;20.74;53.28
37291;BME280;23175;-33.706;151.094;2023-02-28T07:37:46;99030.60;;;20.99;53.74
37291;BME280;23175;-33.706;151.094;2023-02-28T07:40:17;99030.60;;;20.98;53.61
37291;BME280;23175;-33.706;151.094;2023-02-28T07:42:47;99030.46;;;18.71;58.20
37291;BME280;23175;-33.706;151.094;2023-02-28T07:45:17;99029.42;;;19.87;56.34
37291;BME280;23175;-33.706;151.094;2023-02-28T07:47:47;99031.47;;;17.91;60.26
37291;BME280;23175;-33.706;151.094;2023-02-28T07:50:17;99027.73;;;19.90;56.28
37291;BME280;23175;-33.706;151.094;2023-02-28T07:52:49;99030.95;;;20.42;54.80
37291;BME280;23175;-33.706;151.094;2023-02-28T07:55:19;99034.01;;;20.71;54.20
37291;BME280;23175;-33.706;151.094;2023-02-28T07:57:49;99037.01;;;20.35;54.97
37291;BME280;23175;-33.706;151.094;2023-02-28T08:00:21;99045.96;;;23.12;49.83
37291;BME280;23175;-33.706;151.094;2023-02-28T08:02:52;99053.69;;;18.05;58.88
37291;BME280;23175;-33.706;151.094;2023-02-28T08:05:22;99051.36;;;18.34;58.71
37291;BME280;23175;-33.706;151.094;2023-02-28T08:07:52;99039.06;;;19.80;55.82
37291;BME280;23175;-33.706;151.094;2023-02-28T08:10:22;99041.87;;;20.26;54.97
37291;BME280;23175;-33.706;151.094;2023-02-28T08:12:52;99055.97;;;19.50;56.80
37291;BME280;23175;-33.706;151.094;2023-02-28T08:15:22;99053.87;;;18.47;59.98
37291;BME280;23175;-33.706;151.094;2023-02-28T08:17:53;99051.48;;;19.77;57.01
37291;BME280;23175;-33.706;151.094;2023-02-28T08:20:23;99059.25;;;18.68;59.27
37291;BME280;23175;-33.706;151.094;2023-02-28T08:22:54;99057.62;;;20.84;55.33
37291;BME280;23175;-33.706;151.094;2023-02-28T08:25:24;99055.54;;;17.61;60.70
37291;BME280;23175;-33.706;151.094;2023-02-28T08:27:55;99056.60;;;19.26;57.87
37291;BME280;23175;-33.706;151.094;2023-02-28T08:30:25;99056.29;;;20.12;57.65
37291;BME280;23175;-33.706;151.094;2023-02-28T08:32:55;99059.54;;;18.07;61.96
37291;BME280;23175;-33.706;151.094;2023-02-28T08:35:25;99067.81;;;19.21;59.89
37291;BME280;23175;-33.706;151.094;2023-02-28T08:37:56;99070.04;;;21.24;55.71
37291;BME280;23175;-33.706;151.094;2023-02-28T08:40:26;99081.74;;;17.58;62.32
37291;BME280;23175;-33.706;151.094;2023-02-28T08:42:57;99073.42;;;20.84;56.15
37291;BME280;23175;-33.706;151.094;2023-02-28T08:45:28;99072.96;;;17.84;61.97
37291;BME280;23175;-33.706;151.094;2023-02-28T08:47:58;99065.14;;;20.02;58.61
37291;BME280;23175;-33.706;151.094;2023-02-28T08:50:28;99059.58;;;20.51;57.08
37291;BME280;23175;-33.706;151.094;2023-02-28T08:52:58;99064.17;;;20.42;57.28
37291;BME280;23175;-33.706;151.094;2023-02-28T08:55:29;99070.25;;;20.40;56.17
37291;BME280;23175;-33.706;151.094;2023-02-28T08:57:59;99078.30;;;18.22;61.58
37291;BME280;23175;-33.706;151.094;2023-02-28T09:00:30;99090.14;;;17.28;65.18
37291;BME280;23175;-33.706;151.094;2023-02-28T09:03:00;99090.43;;;18.36;64.33
37291;BME280;23175;-33.706;151.094;2023-02-28T09:05:30;99089.24;;;19.62;59.77
37291;BME280;23175;-33.706;151.094;2023-02-28T09:07:59;99092.78;;;18.24;62.46
37291;BME280;23175;-33.706;151.094;2023-02-28T09:10:30;99085.40;;;20.41;58.16
37291;BME280;23175;-33.706;151.094;2023-02-28T09:13:00;99083.09;;;19.89;58.35
37291;BME280;23175;-33.706;151.094;2023-02-28T09:15:30;99087.57;;;20.85;56.35
37291;BME280;23175;-33.706;151.094;2023-02-28T09:18:00;99086.23;;;20.29;57.52
37291;BME280;23175;-33.706;151.094;2023-02-28T09:20:31;99085.85;;;18.36;60.88
37291;BME280;23175;-33.706;151.094;2023-02-28T09:23:01;99086.52;;;19.20;61.23
37291;BME280;23175;-33.706;151.094;2023-02-28T09:25:31;99094.84;;;21.98;54.65
37291;BME280;23175;-33.706;151.094;2023-02-28T09:28:02;99104.86;;;18.05;62.43
37291;BME280;23175;-33.706;151.094;2023-02-28T09:30:32;99108.42;;;18.29;63.13
37291;BME280;23175;-33.706;151.094;2023-02-28T09:33:03;99104.95;;;19.82;59.01
37291;BME280;23175;-33.706;151.094;2023-02-28T09:35:32;99108.02;;;19.19;61.07
37291;BME280;23175;-33.706;151.094;2023-02-28T09:38:03;99111.11;;;16.27;68.69
37291;BME280;23175;-33.706;151.094;2023-02-28T09:40:37;99115.20;;;18.08;65.09
37291;BME280;23175;-33.706;151.094;2023-02-28T09:43:13;99117.68;;;18.01;65.16
37291;BME280;23175;-33.706;151.094;2023-02-28T09:45:48;99124.42;;;17.89;67.17
37291;BME280;23175;-33.706;151.094;2023-02-28T09:48:24;99128.32;;;16.99;68.76
37291;BME280;23175;-33.706;151.094;2023-02-28T09:51:03;99125.88;;;20.12;61.44
37291;BME280;23175;-33.706;151.094;2023-02-28T09:53:36;99130.69;;;20.57;59.70
37291;BME280;23175;-33.706;151.094;2023-02-28T09:56:09;99131.23;;;20.07;60.46
37291;BME280;23175;-33.706;151.094;2023-02-28T09:58:44;99125.00;;;21.09;57.47
37291;BME280;23175;-33.706;151.094;2023-02-28T10:01:25;99125.91;;;19.63;59.56
37291;BME280;23175;-33.706;151.094;2023-02-28T10:04:00;99127.89;;;20.03;58.83
37291;BME280;23175;-33.706;151.094;2023-02-28T10:06:38;99127.35;;;21.29;56.51
37291;BME280;23175;-33.706;151.094;2023-02-28T10:09:14;99126.75;;;19.46;58.94
37291;BME280;23175;-33.706;151.094;2023-02-28T10:11:47;99130.06;;;21.03;56.50
37291;BME280;23175;-33.706;151.094;2023-02-28T10:14:21;99135.50;;;19.01;59.67
37291;BME280;23175;-33.706;151.094;2023-02-28T10:16:54;99134.43;;;22.72;53.13
37291;BME280;23175;-33.706;151.094;2023-02-28T10:19:30;99134.74;;;19.95;57.79
37291;BME280;23175;-33.706;151.094;2023-02-28T10:22:08;99139.37;;;20.02;58.33
37291;BME280;23175;-33.706;151.094;2023-02-28T10:24:42;99142.64;;;22.99;52.83
37291;BME280;23175;-33.706;151.094;2023-02-28T10:27:16;99145.42;;;21.79;55.16
37291;BME280;23175;-33.706;151.094;2023-02-28T10:29:49;99150.58;;;18.88;59.91
37291;BME280;23175;-33.706;151.094;2023-02-28T10:32:23;99153.42;;;18.43;61.58
37291;BME280;23175;-33.706;151.094;2023-02-28T10:34:58;99156.84;;;17.93;65.36
37291;BME280;23175;-33.706;151.094;2023-02-28T10:37:29;99155.27;;;19.58;61.45
37291;BME280;23175;-33.706;151.094;2023-02-28T10:40:00;99157.13;;;20.68;59.22
37291;BME280;23175;-33.706;151.094;2023-02-28T10:42:31;99156.06;;;20.99;58.65
37291;BME280;23175;-33.706;151.094;2023-02-28T10:45:12;99160.00;;;22.05;55.92
37291;BME280;23175;-33.706;151.094;2023-02-28T10:47:52;99163.21;;;17.61;64.36
37291;BME280;23175;-33.706;151.094;2023-02-28T10:50:44;99160.29;;;18.67;62.52
37291;BME280;23175;-33.706;151.094;2023-02-28T10:54:20;99161.25;;;18.93;64.49
37291;BME280;23175;-33.706;151.094;2023-02-28T10:57:39;99154.67;;;20.26;61.01
37291;BME280;23175;-33.706;151.094;2023-02-28T11:00:16;99161.96;;;21.13;58.76
37291;BME280;23175;-33.706;151.094;2023-02-28T11:02:47;99165.16;;;20.43;59.08
37291;BME280;23175;-33.706;151.094;2023-02-28T11:05:31;99169.01;;;18.16;65.28
37291;BME280;23175;-33.706;151.094;2023-02-28T11:08:10;99168.38;;;18.49;64.72
37291;BME280;23175;-33.706;151.094;2023-02-28T11:10:47;99165.50;;;20.30;61.26
37291;BME280;23175;-33.706;151.094;2023-02-28T11:13:21;99163.63;;;19.96;60.66
37291;BME280;23175;-33.706;151.094;2023-02-28T11:15:55;99164.09;;;19.09;63.81
37291;BME280;23175;-33.706;151.094;2023-02-28T11:18:29;99169.58;;;18.66;64.75
37291;BME280;23175;-33.706;151.094;2023-02-28T11:21:01;99163.09;;;22.39;56.79
37291;BME280;23175;-33.706;151.094;2023-02-28T11:23:35;99168.20;;;17.50;66.69
37291;BME280;23175;-33.706;151.094;2023-02-28T11:26:06;99171.13;;;18.77;64.53
37291;BME280;23175;-33.706;151.094;2023-02-28T11:28:39;99173.37;;;19.59;62.66
37291;BME280;23175;-33.706;151.094;2023-02-28T11:31:20;99172.72;;;18.50;65.41
37291;BME280;23175;-33.706;151.094;2023-02-28T11:33:52;99166.31;;;22.81;56.19
37291;BME280;23175;-33.706;151.094;2023-02-28T11:36:26;99164.77;;;23.12;55.52
37291;BME280;23175;-33.706;151.094;2023-02-28T11:38:59;99167.81;;;17.97;65.52
37291;BME280;23175;-33.706;151.094;2023-02-28T11:41:43;99163.58;;;17.15;67.82
37291;BME280;23175;-33.706;151.094;2023-02-28T11:44:34;99161.65;;;18.45;66.69
37291;BME280;23175;-33.706;151.094;2023-02-28T11:47:12;99157.16;;;21.13;60.25
37291;BME280;23175;-33.706;151.094;2023-02-28T11:49:56;99155.21;;;18.71;63.61
37291;BME280;23175;-33.706;151.094;2023-02-28T11:52:40;99149.19;;;20.38;59.68
37291;BME280;23175;-33.706;151.094;2023-02-28T11:55:19;99142.62;;;20.24;61.07
37291;BME280;23175;-33.706;151.094;2023-02-28T11:58:16;99139.06;;;19.66;62.69
37291;BME280;23175;-33.706;151.094;2023-02-28T12:01:04;99133.88;;;18.95;64.95
37291;BME280;23175;-33.706;151.094;2023-02-28T12:03:44;99129.37;;;18.83;65.32
37291;BME280;23175;-33.706;151.094;2023-02-28T12:06:21;99121.80;;;21.03;60.82
37291;BME280;23175;-33.706;151.094;2023-02-28T12:09:08;99115.51;;;21.08;60.42
37291;BME280;23175;-33.706;151.094;2023-02-28T12:11:50;99114.05;;;20.89;59.66
37291;BME280;23175;-33.706;151.094;2023-02-28T12:14:53;99119.79;;;22.68;55.45
37291;BME280;23175;-33.706;151.094;2023-02-28T12:17:37;99121.61;;;22.90;55.70
37291;BME280;23175;-33.706;151.094;2023-02-28T12:20:17;99120.47;;;21.84;57.68
37291;BME280;23175;-33.706;151.094;2023-02-28T12:22:57;99115.83;;;21.60;57.88
37291;BME280;23175;-33.706;151.094;2023-02-28T12:25:55;99109.89;;;19.22;62.71
37291;BME280;23175;-33.706;151.094;2023-02-28T12:28:34;99106.90;;;21.29;59.90
37291;BME280;23175;-33.706;151.094;2023-02-28T12:31:11;99103.96;;;21.94;57.31
37291;BME280;23175;-33.706;151.094;2023-02-28T12:33:47;99107.04;;;22.06;57.11
37291;BME280;23175;-33.706;151.094;2023-02-28T12:36:20;99104.56;;;22.64;56.11
37291;BME280;23175;-33.706;151.094;2023-02-28T12:38:53;99101.12;;;21.77;58.24
37291;BME280;23175;-33.706;151.094;2023-02-28T12:41:32;99099.41;;;24.07;53.26
37291;BME280;23175;-33.706;151.094;2023-02-28T12:44:08;99093.02;;;23.33;54.01
37291;BME280;23175;-33.706;151.094;2023-02-28T12:46:43;99089.71;;;24.19;51.81
37291;BME280;23175;-33.706;151.094;2023-02-28T12:49:17;99089.11;;;22.55;55.00
37291;BME280;23175;-33.706;151.094;2023-02-28T12:51:50;99081.29;;;24.74;50.75
37291;BME280;23175;-33.706;151.094;2023-02-28T12:54:28;99076.04;;;19.25;61.66
37291;BME280;23175;-33.706;151.094;2023-02-28T12:57:06;99079.05;;;22.93;54.09
37291;BME280;23175;-33.706;151.094;2023-02-28T12:59:41;99085.15;;;22.65;54.35
37291;BME280;23175;-33.706;151.094;2023-02-28T13:05:30;99081.57;;;24.02;51.98
37291;BME280;23175;-33.706;151.094;2023-02-28T13:09:29;99080.91;;;24.79;50.57
37291;BME280;23175;-33.706;151.094;2023-02-28T13:12:00;99078.15;;;23.62;51.84